createdAt,value
2022-12-26T14:57:54.053Z,24.33
2022-12-26T15:00:46.579Z,24.77
2022-12-26T15:03:51.560Z,25.17
2022-12-26T15:07:20.753Z,24.75
2022-12-26T15:10:45.697Z,24.63
2022-12-26T15:14:07.981Z,24.27
2022-12-26T15:17:09.610Z,24.05
2022-12-26T15:20:30.559Z,23.35
2022-12-26T15:23:46.742Z,23.38
2022-12-26T15:26:49.532Z,24.13
2022-12-26T15:29:58.153Z,24.15
2022-12-26T15:33:01.993Z,22.90
2022-12-26T15:35:59.516Z,24.98
2022-12-26T15:38:59.453Z,24.40
2022-12-26T15:41:51.858Z,24.13
2022-12-26T15:44:50.231Z,23.23
2022-12-26T15:47:47.788Z,23.30
2022-12-26T15:50:51.652Z,24.50
2022-12-26T15:53:56.215Z,23.38
2022-12-26T15:57:06.309Z,23.00
2022-12-26T16:00:12.843Z,22.95
2022-12-26T16:03:16.038Z,24.02
2022-12-26T16:06:28.389Z,21.95
2022-12-26T16:09:29.243Z,23.90
2022-12-26T16:12:26.769Z,26.33
2022-12-26T16:15:18.830Z,26.75
2022-12-26T16:18:18.063Z,24.33
2022-12-26T16:21:25.883Z,26.73
2022-12-26T16:24:20.745Z,27.27
2022-12-26T16:27:15.700Z,26.48
2022-12-26T16:30:12.116Z,25.17
2022-12-26T16:33:02.658Z,24.42
2022-12-26T16:35:58.995Z,23.70
2022-12-26T16:38:51.106Z,25.45
2022-12-26T16:42:00.305Z,25.38
2022-12-26T16:44:49.708Z,24.17
2022-12-26T16:47:39.444Z,24.63
2022-12-26T16:50:30.133Z,25.92
2022-12-26T16:53:21.136Z,24.15
2022-12-26T16:56:24.242Z,23.63
2022-12-26T16:59:19.189Z,24.55
2022-12-26T17:02:16.834Z,23.70
2022-12-26T17:05:09.359Z,25.42
2022-12-26T17:08:02.446Z,23.58
2022-12-26T17:10:53.079Z,23.73
2022-12-26T17:13:48.742Z,25.10
2022-12-26T17:16:39.207Z,25.42
2022-12-26T17:19:31.586Z,23.83
2022-12-26T17:22:27.804Z,23.48
2022-12-26T17:25:26.230Z,23.20
2022-12-26T17:28:28.937Z,24.63
2022-12-26T17:31:23.166Z,23.80
2022-12-26T17:34:27.546Z,21.85
2022-12-26T17:37:23.759Z,24.13
2022-12-26T17:40:25.833Z,23.77
2022-12-26T17:43:24.314Z,24.30
2022-12-26T17:46:15.967Z,25.15
2022-12-26T17:49:04.919Z,25.08
2022-12-26T17:52:01.788Z,27.27
2022-12-26T17:54:51.884Z,23.38
2022-12-26T17:57:40.944Z,24.75
2022-12-26T18:00:31.040Z,25.02
2022-12-26T18:03:20.688Z,26.23
2022-12-26T18:06:12.339Z,25.67
2022-12-26T18:09:02.864Z,25.13
2022-12-26T18:11:51.879Z,23.95
2022-12-26T18:14:41.347Z,24.35
2022-12-26T18:17:33.420Z,23.83
2022-12-26T18:20:23.931Z,23.65
2022-12-26T18:23:13.188Z,25.05
2022-12-26T18:26:07.005Z,23.33
2022-12-26T18:28:57.715Z,25.02
2022-12-26T18:31:46.707Z,24.50
2022-12-26T18:34:36.340Z,24.33
2022-12-26T18:37:27.017Z,23.13
2022-12-26T18:40:29.250Z,25.27
2022-12-26T18:43:20.346Z,24.70
2022-12-26T18:46:17.322Z,24.90
2022-12-26T18:49:06.307Z,25.10
2022-12-26T18:51:55.882Z,23.88
2022-12-26T18:54:45.511Z,26.98
2022-12-26T18:57:35.043Z,24.20
2022-12-26T19:00:27.183Z,25.63
2022-12-26T19:03:16.381Z,26.40
2022-12-26T19:06:06.018Z,25.35
2022-12-26T19:08:55.102Z,26.35
2022-12-26T19:11:44.500Z,25.63
2022-12-26T19:14:33.632Z,29.63
2022-12-26T19:17:24.092Z,29.75
2022-12-26T19:20:19.659Z,28.65
2022-12-26T19:23:08.389Z,26.90
2022-12-26T19:25:57.119Z,26.25
2022-12-26T19:28:46.680Z,28.90
2022-12-26T19:31:35.900Z,28.75
2022-12-26T19:34:27.455Z,30.52
2022-12-26T19:37:16.663Z,29.90
2022-12-26T19:40:07.024Z,26.30
2022-12-26T19:42:55.960Z,26.98
2022-12-26T19:45:46.055Z,30.57
2022-12-26T19:48:39.735Z,28.05
2022-12-26T19:51:30.271Z,29.10
2022-12-26T19:54:19.351Z,26.92
2022-12-26T19:57:09.116Z,27.40
2022-12-26T19:59:58.624Z,29.07
2022-12-26T20:02:47.863Z,31.20
2022-12-26T20:05:38.297Z,29.17
2022-12-26T20:08:28.888Z,29.57
2022-12-26T20:11:21.539Z,28.97
2022-12-26T20:14:15.605Z,27.45
2022-12-26T20:17:06.698Z,27.63
2022-12-26T20:19:56.524Z,27.80
2022-12-26T20:22:52.729Z,27.33
2022-12-26T20:25:43.621Z,28.40
2022-12-26T20:28:33.135Z,26.00
2022-12-26T20:31:23.630Z,26.45
2022-12-26T20:34:13.362Z,27.73
2022-12-26T20:37:03.274Z,28.60
2022-12-26T20:39:52.860Z,28.50
2022-12-26T20:42:43.159Z,29.23
2022-12-26T20:45:32.242Z,26.17
2022-12-26T20:48:21.374Z,32.37
2022-12-26T20:51:14.196Z,43.07
2022-12-26T20:54:03.417Z,38.97
2022-12-26T20:56:52.383Z,38.73
2022-12-26T20:59:42.933Z,36.20
2022-12-26T21:02:32.103Z,36.67
2022-12-26T21:05:21.209Z,34.58
2022-12-26T21:08:10.223Z,31.92
2022-12-26T21:11:06.735Z,28.33
2022-12-26T21:13:59.036Z,29.20
2022-12-26T21:16:51.107Z,31.50
2022-12-26T21:19:40.575Z,31.60
2022-12-26T21:22:31.113Z,29.50
2022-12-26T21:25:20.185Z,26.87
2022-12-26T21:28:09.267Z,28.03
2022-12-26T21:30:58.789Z,28.08
2022-12-26T21:33:49.354Z,28.07
2022-12-26T21:36:39.126Z,30.15
2022-12-26T21:39:28.194Z,32.20
2022-12-26T21:42:17.677Z,30.77
2022-12-26T21:45:07.572Z,31.08
2022-12-26T21:47:56.660Z,28.60
2022-12-26T21:50:47.626Z,28.53
2022-12-26T21:53:36.825Z,31.47
2022-12-26T21:56:24.727Z,33.28
2022-12-26T21:59:32.934Z,32.87
2022-12-26T22:02:39.855Z,34.07
2022-12-26T22:05:30.810Z,32.33
2022-12-26T22:08:21.526Z,31.27
2022-12-26T22:11:35.480Z,29.53
2022-12-26T22:14:24.800Z,28.67
2022-12-26T22:17:14.076Z,29.67
2022-12-26T22:20:02.842Z,30.80
2022-12-26T22:22:52.350Z,27.90
2022-12-26T22:25:43.345Z,28.43
2022-12-26T22:28:32.714Z,29.10
2022-12-26T22:31:23.439Z,28.47
2022-12-26T22:34:13.378Z,31.02
2022-12-26T22:37:02.775Z,28.53
2022-12-26T22:39:52.212Z,27.37
2022-12-26T22:42:43.039Z,28.10
2022-12-26T22:45:32.092Z,29.23
2022-12-26T22:48:21.278Z,28.10
2022-12-26T22:51:16.785Z,28.27
2022-12-26T22:54:06.126Z,26.97
2022-12-26T22:56:55.285Z,27.57
2022-12-26T23:02:55.788Z,27.47
2022-12-26T23:05:45.743Z,26.43
2022-12-26T23:08:35.214Z,27.53
2022-12-26T23:11:30.300Z,26.73
2022-12-26T23:14:23.371Z,26.10
2022-12-26T23:17:39.146Z,29.13
2022-12-26T23:20:49.630Z,27.13
2022-12-26T23:23:40.174Z,25.23
2022-12-26T23:26:28.719Z,24.77
2022-12-26T23:29:37.379Z,24.23
2022-12-26T23:32:28.307Z,26.03
2022-12-26T23:35:18.148Z,26.17
2022-12-26T23:38:07.649Z,24.90
2022-12-26T23:40:56.577Z,28.37
2022-12-26T23:43:45.845Z,26.47
2022-12-26T23:46:35.087Z,27.23
2022-12-26T23:49:25.827Z,25.43
2022-12-26T23:52:14.770Z,25.23
2022-12-26T23:55:04.270Z,27.20
2022-12-26T23:57:53.203Z,27.23
